Main page
METAR-TAF:

METAR-TAF

Airports :

Houston Executive Airport

Houston, Texas, United States

latitude: 29-48-18N, longitude: 095-53-52W, elevation: 167 ft

Current weather observation

The report was made 29 minutes ago, at 13:15 UTC
Wind 10 mph from the South/Southeast with gusts up to 17 mph
Temperature 79°F
Humidity 94%
Pressure 29.89 in. Hg
Visibility: 4 miles
Broken clouds at a height of 1300 ft
Overcast at a height of 2000 ft
mist

METAR: KTME 201315Z AUTO 16009G15KT 4SM BR BKN013 OVC020 26/25 A2989 RMK AO2

Time: 07:44 (13:44 UTC)


TAF: missing

Weather observations and forecasts of more than 4000 airports (METAR and TAF reports).

The available stations are represented by yellow and red dots on the map.

Hover mouse over dot to see the name of the station.

Then click to see weather observations and forecasts.

To change the map : click on the green buttons with a black cross to zoom in, on the green button with a dash to zoom out, or on the green arrows for adjacent maps.


METAR-TAF: